Cotes De La Manche — FQBE — position and weather

sailwx.info

Track history (hours):
 
Tides and Currents Weather Stations Pressure Air Temp Water Temp Dewpoint Dewpoint Depression Visibility Wind Speed Wind Dir Waves Ship Positions

Cotes De La Manche

Last reported at 2015-Mar-21 11:25 UTC. Time now 2015-Mar-26 22:30 UTC.
Position N 49°29' W 000°34'.

Length 25 m; draft 3.7 m.

Type: Other ship. MMSI: 227091000.

Date/timePositionNaut miles runAvg speedWind from/ knotsBaromVisibWave heightAir tempDewpointWater temp
2015-Mar-21 11:25N 49°29' W 000°34'5 5.1
2015-Mar-21 10:32N 49°26' W 000°28'6 6.6
2015-Mar-21 09:33N 49°22' W 000°20'7 6.6
2015-Mar-21 08:33N 49°17' W 000°15'0 0.5
2015-Mar-21 07:33N 49°16' W 000°15'0 0.0
2015-Mar-21 06:33N 49°16' W 000°15'0 0.0
2015-Mar-21 05:33N 49°16' W 000°15'0 0.0
2015-Mar-21 04:33N 49°16' W 000°15'0 0.0
2015-Mar-21 03:33N 49°16' W 000°15'0 0.0
2015-Mar-21 02:33N 49°16' W 000°15'0 0.0
2015-Mar-21 01:33N 49°16' W 000°15'0 0.0
2015-Mar-21 00:33N 49°16' W 000°15'0 0.0
2015-Mar-20 23:33N 49°16' W 000°15'0 0.0
2015-Mar-20 22:33N 49°16' W 000°15'0 0.0
2015-Mar-20 21:33N 49°16' W 000°15'0 0.0
2015-Mar-20 20:33N 49°16' W 000°15'0 0.0
2015-Mar-20 19:33N 49°16' W 000°15'0 0.0
2015-Mar-20 18:33N 49°16' W 000°15'0 0.0
2015-Mar-20 17:33N 49°16' W 000°15'0 0.0
2015-Mar-20 16:33N 49°16' W 000°15'0 0.0
2015-Mar-20 15:33N 49°16' W 000°15'0 0.0
2015-Mar-20 14:33N 49°16' W 000°15'0 0.0
2015-Mar-20 13:33N 49°16' W 000°15'0 0.0
2015-Mar-20 12:33N 49°16' W 000°15'0 0.0
2015-Mar-20 11:33N 49°16' W 000°15'0 0.0
2015-Mar-20 10:33N 49°16' W 000°15'5 5.0
2015-Mar-20 09:33N 49°21' W 000°12'1010.2
2015-Mar-20 08:33N 49°28' W 000°01'4 3.9
2015-Mar-20 07:33N 49°28' E 000°05'3 3.2
2015-Mar-20 06:33N 49°27' E 000°00'1 1.5
2015-Mar-20 05:33N 49°26' E 000°01'0 0.0
2015-Mar-20 04:33N 49°26' E 000°01'0 0.0
2015-Mar-20 03:33N 49°26' E 000°01'0 0.0
2015-Mar-20 02:33N 49°26' E 000°01'0 0.0
2015-Mar-20 01:33N 49°26' E 000°01'0 0.0
2015-Mar-20 00:33N 49°26' E 000°01'0 0.0
2015-Mar-19 23:33N 49°26' E 000°01'0 0.0
2015-Mar-19 22:33N 49°26' E 000°01'0 0.0
2015-Mar-19 21:33N 49°26' E 000°01'0 0.0
2015-Mar-19 20:33N 49°26' E 000°01'0 0.0
2015-Mar-19 19:33N 49°26' E 000°01'0 0.0
2015-Mar-19 18:33N 49°26' E 000°01'1 0.5
2015-Mar-19 17:33N 49°26' E 000°01'0 0.0
2015-Mar-19 16:33N 49°26' E 000°01'0 0.0
2015-Mar-19 15:33N 49°26' E 000°01'0 0.0
2015-Mar-19 14:33N 49°26' E 000°01'0 0.0
2015-Mar-19 13:33N 49°26' E 000°01'0 0.0
2015-Mar-19 12:33N 49°26' E 000°01'0 0.0
2015-Mar-19 11:33N 49°26' E 000°01'6 6.3
2015-Mar-19 10:33N 49°32' E 000°04'1 1.1
2015-Mar-19 09:33N 49°33' E 000°03'1 0.7
2015-Mar-19 08:33N 49°33' E 000°04'3 3.4
2015-Mar-19 07:33N 49°31' E 000°01'6 5.8
2015-Mar-19 06:33N 49°25' W 000°00'0 0.0
2015-Mar-19 05:33N 49°25' W 000°00'0 0.1
2015-Mar-19 04:33N 49°25' W 000°00'0 0.0
2015-Mar-19 03:33N 49°25' W 000°00'0 0.0
2015-Mar-19 02:33N 49°25' W 000°00'0 0.0
2015-Mar-19 01:33N 49°25' W 000°00'0 0.0
2015-Mar-19 00:33N 49°25' W 000°00'0 0.0
2015-Mar-18 23:33N 49°25' W 000°00'0 0.0
2015-Mar-18 22:33N 49°25' W 000°00'4 3.7
2015-Mar-18 21:33N 49°23' W 000°05'9 9.0
2015-Mar-18 20:33N 49°17' W 000°15'1 0.5
2015-Mar-18 19:33N 49°16' W 000°15'0 0.0
2015-Mar-18 18:33N 49°16' W 000°15'1 1.0
2015-Mar-18 17:33N 49°17' W 000°15'4 3.7
2015-Mar-18 16:33N 49°21' W 000°16'7 6.7
2015-Mar-18 15:33N 49°25' W 000°25'3 3.1
2015-Mar-18 14:33N 49°27' W 000°28'1 1.1
2015-Mar-18 13:28N 49°26' W 000°26'3 2.6
2015-Mar-18 12:31N 49°24' W 000°29'5 5.5
2015-Mar-18 11:33N 49°26' W 000°21'1010.1
2015-Mar-18 10:33N 49°26' W 000°06'5 4.5
2015-Mar-18 09:33N 49°26' E 000°01'0 0.3
2015-Mar-18 08:33N 49°26' E 000°02'0 0.4
2015-Mar-18 07:33N 49°25' E 000°02'4 3.8
2015-Mar-18 06:33N 49°29' E 000°00'6 6.2
2015-Mar-18 05:33N 49°34' E 000°05'0 0.0
2015-Mar-18 04:33N 49°34' E 000°05'0 0.0
2015-Mar-18 03:33N 49°34' E 000°05'0 0.0
2015-Mar-18 02:33N 49°34' E 000°05'0 0.0
2015-Mar-18 01:33N 49°34' E 000°05'0 0.0
2015-Mar-18 00:33N 49°34' E 000°05'0 0.0
2015-Mar-17 23:33N 49°34' E 000°05'0 0.0
2015-Mar-17 22:33N 49°34' E 000°05'0 0.0
2015-Mar-17 21:31N 49°34' E 000°05'0 0.0
2015-Mar-17 18:23N 49°34' E 000°05'1 0.6
2015-Mar-17 17:26N 49°34' E 000°05'0 0.4
2015-Mar-17 16:26N 49°34' E 000°05'1 0.7
2015-Mar-17 15:33N 49°34' E 000°04'2 2.2
2015-Mar-17 14:33N 49°32' E 000°03'1 1.0
2015-Mar-17 13:33N 49°32' E 000°02'1 0.7
2015-Mar-17 12:33N 49°32' E 000°03'0 0.0
2015-Mar-17 11:33N 49°32' E 000°03'0 0.4
2015-Mar-17 10:33N 49°32' E 000°04'1 1.0
2015-Mar-17 09:33N 49°32' E 000°02'1 0.6
2015-Mar-17 08:33N 49°31' E 000°03'0 0.5
2015-Mar-17 07:33N 49°31' E 000°02'2 1.8
2015-Mar-17 06:33N 49°30' E 000°00'1 1.2
2015-Mar-17 05:33N 49°29' W 000°01'0 0.0
2015-Mar-17 04:34N 49°29' W 000°01'0 0.0
2015-Mar-17 03:33N 49°29' W 000°01'0 0.0
2015-Mar-17 02:33N 49°29' W 000°02'0 0.0
2015-Mar-17 01:34N 49°29' W 000°02'0 0.0
2015-Mar-17 00:33N 49°29' W 000°02'0 0.0
2015-Mar-16 23:33N 49°29' W 000°02'0 0.0
2015-Mar-16 22:33N 49°29' W 000°02'3 3.1
2015-Mar-16 21:33N 49°27' W 000°05'1010.1
2015-Mar-16 20:33N 49°19' W 000°15'3 2.9
2015-Mar-16 19:33N 49°16' W 000°15'0 0.0
2015-Mar-16 18:33N 49°16' W 000°15'0 0.0
2015-Mar-16 17:33N 49°16' W 000°15'0 0.0
2015-Mar-16 16:33N 49°16' W 000°15'0 0.0
2015-Mar-16 15:33N 49°16' W 000°15'0 0.0
2015-Mar-16 14:33N 49°16' W 000°15'0 0.0
2015-Mar-16 13:33N 49°16' W 000°15'0 0.0
2015-Mar-16 12:33N 49°16' W 000°15'0 0.0
2015-Mar-16 11:33N 49°16' W 000°15'0 0.0
2015-Mar-16 10:33N 49°16' W 000°15'0 0.0
2015-Mar-16 09:33N 49°16' W 000°15'0 0.0
2015-Mar-16 08:33N 49°16' W 000°15'1 0.7
2015-Mar-16 07:33N 49°17' W 000°15'5 4.7
2015-Mar-16 06:33N 49°21' W 000°17'5 5.2
2015-Mar-16 05:33N 49°24' W 000°23'186 5.2
2015-Mar-14 17:33N 48°18' W 004°48'1010.0
2015-Mar-14 16:33N 48°08' W 004°46'69 9.5
2015-Mar-14 09:22N 47°32' W 003°19'9 9.9
2015-Mar-14 08:29N 47°27' W 003°09'3 3.0
2015-Mar-14 07:33N 47°29' W 003°05'0 0.0
2015-Mar-14 06:33N 47°29' W 003°05'0 0.0
2015-Mar-14 05:33N 47°29' W 003°05'0 0.0
2015-Mar-14 04:33N 47°29' W 003°05'0 0.0
2015-Mar-14 03:33N 47°29' W 003°05'0 0.0
2015-Mar-14 02:33N 47°29' W 003°05'0 0.0
2015-Mar-14 01:33N 47°29' W 003°05'0 0.0
2015-Mar-14 00:32N 47°29' W 003°05'0 0.0
2015-Mar-13 23:33N 47°29' W 003°05'0 0.0
2015-Mar-13 22:33N 47°29' W 003°05'0 0.0
2015-Mar-13 21:26N 47°29' W 003°05'0 0.0
2015-Mar-13 20:23N 47°29' W 003°05'0 0.0
2015-Mar-13 19:32N 47°29' W 003°05'0 0.0
2015-Mar-13 18:31N 47°29' W 003°05'2 2.2
2015-Mar-13 17:25N 47°28' W 003°02'61 8.8
2015-Mar-13 10:29N 46°40' W 002°07'8 9.2
2015-Mar-13 09:33N 46°33' W 001°58'9 8.7
2015-Mar-13 08:33N 46°28' W 001°48'2 1.6
2015-Mar-13 07:33N 46°30' W 001°48'0 0.0
2015-Mar-13 06:33N 46°30' W 001°48'0 0.0
2015-Mar-13 05:33N 46°30' W 001°48'0 0.0
2015-Mar-13 04:33N 46°30' W 001°48'0 0.0
2015-Mar-13 03:33N 46°30' W 001°48'0 0.0
2015-Mar-13 02:33N 46°30' W 001°48'0 0.0
2015-Mar-13 01:33N 46°30' W 001°48'0 0.0
2015-Mar-13 00:33N 46°30' W 001°48'0 0.0
2015-Mar-12 23:33N 46°30' W 001°48'0 0.0
2015-Mar-12 22:33N 46°30' W 001°48'0 0.0
2015-Mar-12 21:33N 46°30' W 001°48'0 0.0
2015-Mar-12 20:33N 46°30' W 001°48'0 0.0
2015-Mar-12 19:33N 46°30' W 001°48'0 0.0
2015-Mar-12 18:33N 46°30' W 001°48'0 0.0
2015-Mar-12 17:33N 46°30' W 001°48'0 0.0
2015-Mar-12 16:33N 46°30' W 001°48'0 0.0
2015-Mar-12 15:33N 46°30' W 001°48'0 0.0
2015-Mar-12 14:33N 46°30' W 001°48'0 0.0
2015-Mar-12 13:33N 46°30' W 001°48'0 0.0
2015-Mar-12 12:33N 46°30' W 001°48'0 0.0
2015-Mar-12 11:33N 46°30' W 001°48'0 0.0
2015-Mar-12 10:33N 46°30' W 001°48'0 0.0
2015-Mar-12 09:33N 46°30' W 001°48'0 0.0
2015-Mar-12 08:33N 46°30' W 001°48'0 0.0
2015-Mar-12 07:33N 46°30' W 001°48'0 0.0
2015-Mar-12 02:27N 46°30' W 001°48'0 0.0
2015-Mar-12 01:33N 46°30' W 001°48'0 0.0
2015-Mar-12 00:33N 46°30' W 001°48'0 0.0
2015-Mar-11 23:33N 46°30' W 001°48'0 0.0
2015-Mar-11 22:33N 46°30' W 001°48'0 0.0
2015-Mar-11 21:33N 46°30' W 001°48'0 0.0
2015-Mar-11 20:33N 46°30' W 001°48'0 0.0
2015-Mar-11 19:33N 46°30' W 001°48'0 0.0
2015-Mar-11 18:33N 46°30' W 001°48'0 0.0
2015-Mar-11 17:33N 46°30' W 001°48'0 0.0
2015-Mar-11 16:33N 46°30' W 001°48'0 0.0
2015-Mar-11 15:33N 46°30' W 001°48'0 0.0
2015-Mar-11 14:33N 46°30' W 001°48'0 0.0
2015-Mar-11 13:27N 46°30' W 001°48'0 0.0
2015-Mar-11 12:33N 46°30' W 001°48'0 0.0
2015-Mar-11 11:33N 46°30' W 001°48'  
Track history (hours):
 
Tides and Currents Weather Stations Pressure Air Temp Water Temp Dewpoint Dewpoint Depression Visibility Wind Speed Wind Dir Waves Ship Positions

Cotes De La Manche

Last reported at 2015-Mar-21 11:25 UTC. Time now 2015-Mar-26 22:30 UTC.
Position N 49°29' W 000°34'.

Length 25 m; draft 3.7 m.

Type: Other ship. MMSI: 227091000.

Date/timePositionNaut miles runAvg speedWind from/ knotsBaromVisibWave heightAir tempDewpointWater temp
2015-Mar-21 11:25N 49°29' W 000°34'5 5.1
2015-Mar-21 10:32N 49°26' W 000°28'6 6.6
2015-Mar-21 09:33N 49°22' W 000°20'7 6.6
2015-Mar-21 08:33N 49°17' W 000°15'0 0.5
2015-Mar-21 07:33N 49°16' W 000°15'0 0.0
2015-Mar-21 06:33N 49°16' W 000°15'0 0.0
2015-Mar-21 05:33N 49°16' W 000°15'0 0.0
2015-Mar-21 04:33N 49°16' W 000°15'0 0.0
2015-Mar-21 03:33N 49°16' W 000°15'0 0.0
2015-Mar-21 02:33N 49°16' W 000°15'0 0.0
2015-Mar-21 01:33N 49°16' W 000°15'0 0.0
2015-Mar-21 00:33N 49°16' W 000°15'0 0.0
2015-Mar-20 23:33N 49°16' W 000°15'0 0.0
2015-Mar-20 22:33N 49°16' W 000°15'0 0.0
2015-Mar-20 21:33N 49°16' W 000°15'0 0.0
2015-Mar-20 20:33N 49°16' W 000°15'0 0.0
2015-Mar-20 19:33N 49°16' W 000°15'0 0.0
2015-Mar-20 18:33N 49°16' W 000°15'0 0.0
2015-Mar-20 17:33N 49°16' W 000°15'0 0.0
2015-Mar-20 16:33N 49°16' W 000°15'0 0.0
2015-Mar-20 15:33N 49°16' W 000°15'0 0.0
2015-Mar-20 14:33N 49°16' W 000°15'0 0.0
2015-Mar-20 13:33N 49°16' W 000°15'0 0.0
2015-Mar-20 12:33N 49°16' W 000°15'0 0.0
2015-Mar-20 11:33N 49°16' W 000°15'0 0.0
2015-Mar-20 10:33N 49°16' W 000°15'5 5.0
2015-Mar-20 09:33N 49°21' W 000°12'1010.2
2015-Mar-20 08:33N 49°28' W 000°01'4 3.9
2015-Mar-20 07:33N 49°28' E 000°05'3 3.2
2015-Mar-20 06:33N 49°27' E 000°00'1 1.5
2015-Mar-20 05:33N 49°26' E 000°01'0 0.0
2015-Mar-20 04:33N 49°26' E 000°01'0 0.0
2015-Mar-20 03:33N 49°26' E 000°01'0 0.0
2015-Mar-20 02:33N 49°26' E 000°01'0 0.0
2015-Mar-20 01:33N 49°26' E 000°01'0 0.0
2015-Mar-20 00:33N 49°26' E 000°01'0 0.0
2015-Mar-19 23:33N 49°26' E 000°01'0 0.0
2015-Mar-19 22:33N 49°26' E 000°01'0 0.0
2015-Mar-19 21:33N 49°26' E 000°01'0 0.0
2015-Mar-19 20:33N 49°26' E 000°01'0 0.0
2015-Mar-19 19:33N 49°26' E 000°01'0 0.0
2015-Mar-19 18:33N 49°26' E 000°01'1 0.5
2015-Mar-19 17:33N 49°26' E 000°01'0 0.0
2015-Mar-19 16:33N 49°26' E 000°01'0 0.0
2015-Mar-19 15:33N 49°26' E 000°01'0 0.0
2015-Mar-19 14:33N 49°26' E 000°01'0 0.0
2015-Mar-19 13:33N 49°26' E 000°01'0 0.0
2015-Mar-19 12:33N 49°26' E 000°01'0 0.0
2015-Mar-19 11:33N 49°26' E 000°01'6 6.3
2015-Mar-19 10:33N 49°32' E 000°04'1 1.1
2015-Mar-19 09:33N 49°33' E 000°03'1 0.7
2015-Mar-19 08:33N 49°33' E 000°04'3 3.4
2015-Mar-19 07:33N 49°31' E 000°01'6 5.8
2015-Mar-19 06:33N 49°25' W 000°00'0 0.0
2015-Mar-19 05:33N 49°25' W 000°00'0 0.1
2015-Mar-19 04:33N 49°25' W 000°00'0 0.0
2015-Mar-19 03:33N 49°25' W 000°00'0 0.0
2015-Mar-19 02:33N 49°25' W 000°00'0 0.0
2015-Mar-19 01:33N 49°25' W 000°00'0 0.0
2015-Mar-19 00:33N 49°25' W 000°00'0 0.0
2015-Mar-18 23:33N 49°25' W 000°00'0 0.0
2015-Mar-18 22:33N 49°25' W 000°00'4 3.7
2015-Mar-18 21:33N 49°23' W 000°05'9 9.0
2015-Mar-18 20:33N 49°17' W 000°15'1 0.5
2015-Mar-18 19:33N 49°16' W 000°15'0 0.0
2015-Mar-18 18:33N 49°16' W 000°15'1 1.0
2015-Mar-18 17:33N 49°17' W 000°15'4 3.7
2015-Mar-18 16:33N 49°21' W 000°16'7 6.7
2015-Mar-18 15:33N 49°25' W 000°25'3 3.1
2015-Mar-18 14:33N 49°27' W 000°28'1 1.1
2015-Mar-18 13:28N 49°26' W 000°26'3 2.6
2015-Mar-18 12:31N 49°24' W 000°29'5 5.5
2015-Mar-18 11:33N 49°26' W 000°21'1010.1
2015-Mar-18 10:33N 49°26' W 000°06'5 4.5
2015-Mar-18 09:33N 49°26' E 000°01'0 0.3
2015-Mar-18 08:33N 49°26' E 000°02'0 0.4
2015-Mar-18 07:33N 49°25' E 000°02'4 3.8
2015-Mar-18 06:33N 49°29' E 000°00'6 6.2
2015-Mar-18 05:33N 49°34' E 000°05'0 0.0
2015-Mar-18 04:33N 49°34' E 000°05'0 0.0
2015-Mar-18 03:33N 49°34' E 000°05'0 0.0
2015-Mar-18 02:33N 49°34' E 000°05'0 0.0
2015-Mar-18 01:33N 49°34' E 000°05'0 0.0
2015-Mar-18 00:33N 49°34' E 000°05'0 0.0
2015-Mar-17 23:33N 49°34' E 000°05'0 0.0
2015-Mar-17 22:33N 49°34' E 000°05'0 0.0
2015-Mar-17 21:31N 49°34' E 000°05'0 0.0
2015-Mar-17 18:23N 49°34' E 000°05'1 0.6
2015-Mar-17 17:26N 49°34' E 000°05'0 0.4
2015-Mar-17 16:26N 49°34' E 000°05'1 0.7
2015-Mar-17 15:33N 49°34' E 000°04'2 2.2
2015-Mar-17 14:33N 49°32' E 000°03'1 1.0
2015-Mar-17 13:33N 49°32' E 000°02'1 0.7
2015-Mar-17 12:33N 49°32' E 000°03'0 0.0
2015-Mar-17 11:33N 49°32' E 000°03'0 0.4
2015-Mar-17 10:33N 49°32' E 000°04'1 1.0
2015-Mar-17 09:33N 49°32' E 000°02'1 0.6
2015-Mar-17 08:33N 49°31' E 000°03'0 0.5
2015-Mar-17 07:33N 49°31' E 000°02'2 1.8
2015-Mar-17 06:33N 49°30' E 000°00'1 1.2
2015-Mar-17 05:33N 49°29' W 000°01'0 0.0
2015-Mar-17 04:34N 49°29' W 000°01'0 0.0
2015-Mar-17 03:33N 49°29' W 000°01'0 0.0
2015-Mar-17 02:33N 49°29' W 000°02'0 0.0
2015-Mar-17 01:34N 49°29' W 000°02'0 0.0
2015-Mar-17 00:33N 49°29' W 000°02'0 0.0
2015-Mar-16 23:33N 49°29' W 000°02'0 0.0
2015-Mar-16 22:33N 49°29' W 000°02'3 3.1
2015-Mar-16 21:33N 49°27' W 000°05'1010.1
2015-Mar-16 20:33N 49°19' W 000°15'3 2.9
2015-Mar-16 19:33N 49°16' W 000°15'0 0.0
2015-Mar-16 18:33N 49°16' W 000°15'0 0.0
2015-Mar-16 17:33N 49°16' W 000°15'0 0.0
2015-Mar-16 16:33N 49°16' W 000°15'0 0.0
2015-Mar-16 15:33N 49°16' W 000°15'0 0.0
2015-Mar-16 14:33N 49°16' W 000°15'0 0.0
2015-Mar-16 13:33N 49°16' W 000°15'0 0.0
2015-Mar-16 12:33N 49°16' W 000°15'0 0.0
2015-Mar-16 11:33N 49°16' W 000°15'0 0.0
2015-Mar-16 10:33N 49°16' W 000°15'0 0.0
2015-Mar-16 09:33N 49°16' W 000°15'0 0.0
2015-Mar-16 08:33N 49°16' W 000°15'1 0.7
2015-Mar-16 07:33N 49°17' W 000°15'5 4.7
2015-Mar-16 06:33N 49°21' W 000°17'5 5.2
2015-Mar-16 05:33N 49°24' W 000°23'186 5.2
2015-Mar-14 17:33N 48°18' W 004°48'1010.0
2015-Mar-14 16:33N 48°08' W 004°46'69 9.5
2015-Mar-14 09:22N 47°32' W 003°19'9 9.9
2015-Mar-14 08:29N 47°27' W 003°09'3 3.0
2015-Mar-14 07:33N 47°29' W 003°05'0 0.0
2015-Mar-14 06:33N 47°29' W 003°05'0 0.0
2015-Mar-14 05:33N 47°29' W 003°05'0 0.0
2015-Mar-14 04:33N 47°29' W 003°05'0 0.0
2015-Mar-14 03:33N 47°29' W 003°05'0 0.0
2015-Mar-14 02:33N 47°29' W 003°05'0 0.0
2015-Mar-14 01:33N 47°29' W 003°05'0 0.0
2015-Mar-14 00:32N 47°29' W 003°05'0 0.0
2015-Mar-13 23:33N 47°29' W 003°05'0 0.0
2015-Mar-13 22:33N 47°29' W 003°05'0 0.0
2015-Mar-13 21:26N 47°29' W 003°05'0 0.0
2015-Mar-13 20:23N 47°29' W 003°05'0 0.0
2015-Mar-13 19:32N 47°29' W 003°05'0 0.0
2015-Mar-13 18:31N 47°29' W 003°05'2 2.2
2015-Mar-13 17:25N 47°28' W 003°02'61 8.8
2015-Mar-13 10:29N 46°40' W 002°07'8 9.2
2015-Mar-13 09:33N 46°33' W 001°58'9 8.7
2015-Mar-13 08:33N 46°28' W 001°48'2 1.6
2015-Mar-13 07:33N 46°30' W 001°48'0 0.0
2015-Mar-13 06:33N 46°30' W 001°48'0 0.0
2015-Mar-13 05:33N 46°30' W 001°48'0 0.0
2015-Mar-13 04:33N 46°30' W 001°48'0 0.0
2015-Mar-13 03:33N 46°30' W 001°48'0 0.0
2015-Mar-13 02:33N 46°30' W 001°48'0 0.0
2015-Mar-13 01:33N 46°30' W 001°48'0 0.0
2015-Mar-13 00:33N 46°30' W 001°48'0 0.0
2015-Mar-12 23:33N 46°30' W 001°48'0 0.0
2015-Mar-12 22:33N 46°30' W 001°48'0 0.0
2015-Mar-12 21:33N 46°30' W 001°48'0 0.0
2015-Mar-12 20:33N 46°30' W 001°48'0 0.0
2015-Mar-12 19:33N 46°30' W 001°48'0 0.0
2015-Mar-12 18:33N 46°30' W 001°48'0 0.0
2015-Mar-12 17:33N 46°30' W 001°48'0 0.0
2015-Mar-12 16:33N 46°30' W 001°48'0 0.0
2015-Mar-12 15:33N 46°30' W 001°48'0 0.0
2015-Mar-12 14:33N 46°30' W 001°48'0 0.0
2015-Mar-12 13:33N 46°30' W 001°48'0 0.0
2015-Mar-12 12:33N 46°30' W 001°48'0 0.0
2015-Mar-12 11:33N 46°30' W 001°48'0 0.0
2015-Mar-12 10:33N 46°30' W 001°48'0 0.0
2015-Mar-12 09:33N 46°30' W 001°48'0 0.0
2015-Mar-12 08:33N 46°30' W 001°48'0 0.0
2015-Mar-12 07:33N 46°30' W 001°48'0 0.0
2015-Mar-12 02:27N 46°30' W 001°48'0 0.0
2015-Mar-12 01:33N 46°30' W 001°48'0 0.0
2015-Mar-12 00:33N 46°30' W 001°48'0 0.0
2015-Mar-11 23:33N 46°30' W 001°48'0 0.0
2015-Mar-11 22:33N 46°30' W 001°48'0 0.0
2015-Mar-11 21:33N 46°30' W 001°48'0 0.0
2015-Mar-11 20:33N 46°30' W 001°48'0 0.0
2015-Mar-11 19:33N 46°30' W 001°48'0 0.0
2015-Mar-11 18:33N 46°30' W 001°48'0 0.0
2015-Mar-11 17:33N 46°30' W 001°48'0 0.0
2015-Mar-11 16:33N 46°30' W 001°48'0 0.0
2015-Mar-11 15:33N 46°30' W 001°48'0 0.0
2015-Mar-11 14:33N 46°30' W 001°48'0 0.0
2015-Mar-11 13:27N 46°30' W 001°48'0 0.0
2015-Mar-11 12:33N 46°30' W 001°48'0 0.0
2015-Mar-11 11:33N 46°30' W 001°48'  

Dump ship's entire track history